Connecticut River @ Montague City, Ma

Connecticut River at Montague City
 Total Drainage Area: 7,865 sq. miles 
 Drainage Area Controlled by Corps Dams: 1,154 sq. miles (15%) 
 Warning Flow/Stage: 64,200 cfs / 25.0 feet 
 Flood Flow/Stage: 89,750 cfs / 30.0 feet 
Date Time
(Eastern)
Stage
(ft)
Flow
(cfs)
CSM
May-28 11:30 am 7.63 3,788 .5
May-28 10:30 am 7.63 3,788 .5
May-28 09:30 am 7.64 3,805 .5
May-28 08:30 am 7.70 3,906 .5
May-28 07:30 am 7.83 4,130 .5
May-28 06:30 am 8.29 4,976 .6
May-28 05:30 am 8.76 5,922 .8
May-28 04:30 am      
May-28 03:30 am 8.75 5,901 .8
May-28 02:30 am 8.83 6,071 .8
May-28 01:30 am 9.04 6,527 .8
May-28 12:30 am 9.48 7,537 1.0
May-27 11:30 pm 9.78 8,268 1.1
May-27 10:30 pm 9.75 8,193 1.0
May-27 09:30 pm 9.73 8,144 1.0
May-27 08:30 pm 9.75 8,193 1.0
May-27 07:30 pm 9.78 8,268 1.1
May-27 06:30 pm 9.80 8,318 1.1
May-27 05:30 pm 9.84 8,418 1.1
May-27 04:30 pm 9.94 8,672 1.1
May-27 03:30 pm 10.13 9,165 1.2
May-27 02:30 pm 10.60 10,444 1.3
May-27 01:30 pm 10.58 10,388 1.3
May-27 12:30 pm 10.52 10,220 1.3
May-27 11:30 am 10.46 10,054 1.3
Report Generated May 28, 2022 03:55 pm